createdAt,value
2023-02-11T00:02:09.222Z,31.13
2023-02-11T00:04:35.593Z,30.63
2023-02-11T00:07:02.074Z,33.17
2023-02-11T00:09:30.902Z,31.77
2023-02-11T00:11:58.133Z,30.07
2023-02-11T00:14:24.462Z,32.00
2023-02-11T00:16:50.806Z,31.97
2023-02-11T00:19:17.179Z,31.57
2023-02-11T00:21:43.643Z,31.03
2023-02-11T00:24:10.055Z,30.57
2023-02-11T00:26:36.544Z,30.13
2023-02-11T00:29:04.672Z,29.50
2023-02-11T00:31:31.362Z,29.87
2023-02-11T00:33:57.846Z,28.53
2023-02-11T00:36:26.891Z,29.63
2023-02-11T00:38:54.956Z,27.47
2023-02-11T00:41:22.123Z,28.63
2023-02-11T00:43:48.975Z,30.10
2023-02-11T00:46:17.360Z,27.77
2023-02-11T00:48:43.811Z,27.40
2023-02-11T00:51:10.415Z,29.17
2023-02-11T00:53:37.501Z,27.93
2023-02-11T00:56:04.442Z,28.00
2023-02-11T00:58:31.396Z,28.13
2023-02-11T01:00:57.793Z,28.37
2023-02-11T01:03:24.839Z,28.37
2023-02-11T01:05:51.912Z,28.90
2023-02-11T01:08:18.914Z,27.27
2023-02-11T01:10:45.343Z,27.67
2023-02-11T01:13:11.783Z,26.30
2023-02-11T01:15:38.165Z,28.20
2023-02-11T01:18:05.922Z,27.57
2023-02-11T01:20:32.276Z,26.60
2023-02-11T01:22:58.666Z,25.47
2023-02-11T01:25:25.043Z,26.77
2023-02-11T01:27:51.405Z,27.73
2023-02-11T01:30:17.752Z,27.30
2023-02-11T01:32:46.061Z,25.70
2023-02-11T01:35:12.441Z,25.40
2023-02-11T01:37:38.798Z,26.93
2023-02-11T01:40:08.470Z,25.63
2023-02-11T01:42:34.909Z,27.07
2023-02-11T01:45:21.891Z,26.97
2023-02-11T01:47:48.289Z,25.83
2023-02-11T01:50:14.842Z,24.97
2023-02-11T01:52:42.502Z,24.57
2023-02-11T01:55:30.829Z,27.23
2023-02-11T01:58:02.318Z,24.93
2023-02-11T02:00:36.621Z,25.93
2023-02-11T02:03:07.911Z,26.43
2023-02-11T02:05:48.274Z,24.37
2023-02-11T02:08:14.799Z,25.63
2023-02-11T02:10:45.678Z,23.87
2023-02-11T02:13:12.955Z,23.83
2023-02-11T02:15:44.597Z,24.07
2023-02-11T02:18:50.970Z,24.63
2023-02-11T02:21:51.285Z,22.33
2023-02-11T02:24:41.862Z,23.63
2023-02-11T02:27:27.724Z,23.67
2023-02-11T02:30:11.057Z,23.00
2023-02-11T02:32:54.086Z,22.97
2023-02-11T02:35:33.229Z,22.20
2023-02-11T02:38:13.213Z,24.20
2023-02-11T02:40:51.711Z,25.13
2023-02-11T02:43:19.164Z,24.07
2023-02-11T02:45:45.580Z,23.77
2023-02-11T02:48:33.042Z,22.37
2023-02-11T02:51:27.179Z,23.70
2023-02-11T02:54:24.286Z,23.50
2023-02-11T02:56:55.419Z,23.10
2023-02-11T02:59:53.852Z,23.57
2023-02-11T03:02:31.289Z,21.13
2023-02-11T03:05:06.063Z,22.77
2023-02-11T03:07:43.901Z,23.43
2023-02-11T03:10:20.011Z,22.67
2023-02-11T03:12:48.304Z,23.03
2023-02-11T03:15:17.097Z,20.97
2023-02-11T03:17:49.717Z,22.03
2023-02-11T03:20:18.750Z,21.93
2023-02-11T03:22:53.762Z,22.43
2023-02-11T03:25:21.154Z,23.50
2023-02-11T03:27:53.298Z,23.20
2023-02-11T03:30:22.623Z,23.57
2023-02-11T03:32:52.446Z,22.60
2023-02-11T03:35:25.009Z,24.37
2023-02-11T03:38:06.642Z,21.33
2023-02-11T03:40:38.174Z,23.60
2023-02-11T03:43:10.913Z,24.10
2023-02-11T03:45:38.327Z,26.30
2023-02-11T03:48:27.850Z,24.83
2023-02-11T03:50:55.384Z,23.50
2023-02-11T03:53:22.897Z,25.57
2023-02-11T03:55:51.848Z,25.53
2023-02-11T03:58:18.542Z,24.80
2023-02-11T04:00:45.082Z,25.30
2023-02-11T04:03:12.594Z,24.20
2023-02-11T04:05:39.365Z,25.57
2023-02-11T04:08:05.938Z,23.87
2023-02-11T04:10:32.696Z,23.90
2023-02-11T04:12:59.091Z,24.70
2023-02-11T04:15:25.579Z,25.00
2023-02-11T04:17:51.996Z,25.20
2023-02-11T04:20:18.479Z,25.53
2023-02-11T04:22:44.833Z,26.40
2023-02-11T04:25:11.221Z,26.93
2023-02-11T04:27:37.806Z,26.67
2023-02-11T04:30:05.982Z,26.53
2023-02-11T04:32:32.382Z,26.50
2023-02-11T04:34:58.751Z,27.03
2023-02-11T04:37:25.143Z,26.40
2023-02-11T04:39:51.496Z,26.17
2023-02-11T04:42:17.858Z,25.40
2023-02-11T04:44:44.269Z,25.67
2023-02-11T04:47:12.603Z,26.53
2023-02-11T04:49:39.262Z,27.80
2023-02-11T04:52:05.821Z,28.57
2023-02-11T04:54:32.197Z,29.07
2023-02-11T04:56:58.585Z,27.90
2023-02-11T04:59:25.047Z,28.57
2023-02-11T05:01:51.440Z,27.73
2023-02-11T05:04:18.290Z,28.50
2023-02-11T05:06:44.863Z,28.90
2023-02-11T05:09:12.932Z,27.83
2023-02-11T05:11:39.995Z,28.57
2023-02-11T05:14:06.955Z,28.27
2023-02-11T05:16:33.925Z,30.47
2023-02-11T05:19:00.603Z,29.43
2023-02-11T05:21:27.010Z,29.83
2023-02-11T05:23:53.501Z,29.83
2023-02-11T05:26:19.892Z,30.00
2023-02-11T05:28:46.428Z,30.00
2023-02-11T05:31:14.520Z,29.77
2023-02-11T05:33:41.502Z,31.07
2023-02-11T05:36:10.384Z,30.10
2023-02-11T05:38:37.734Z,30.20
2023-02-11T05:41:05.507Z,29.37
2023-02-11T05:43:31.904Z,30.90
2023-02-11T05:45:58.308Z,33.20
2023-02-11T05:48:24.700Z,29.50
2023-02-11T05:50:51.084Z,32.80
2023-02-11T05:53:17.461Z,32.80
2023-02-11T05:55:43.989Z,30.07
2023-02-11T05:58:10.380Z,30.83
2023-02-11T06:00:37.478Z,31.73
2023-02-11T06:03:04.483Z,32.20
2023-02-11T06:05:31.464Z,31.83
2023-02-11T06:07:58.145Z,32.27
2023-02-11T06:10:24.509Z,34.27
2023-02-11T06:12:50.883Z,33.27
2023-02-11T06:15:17.273Z,30.90
2023-02-11T06:17:43.641Z,33.83
2023-02-11T06:20:10.927Z,33.97
2023-02-11T06:22:37.575Z,34.63
2023-02-11T06:25:04.383Z,35.43
2023-02-11T06:27:30.837Z,36.27
2023-02-11T06:29:57.253Z,35.57
2023-02-11T06:32:42.799Z,36.07
2023-02-11T06:35:12.096Z,36.93
2023-02-11T06:37:39.133Z,36.60
2023-02-11T06:40:06.218Z,37.10
2023-02-11T06:42:32.716Z,37.07
2023-02-11T06:44:59.088Z,37.43
2023-02-11T06:47:25.475Z,36.10
2023-02-11T06:49:51.888Z,35.13
2023-02-11T06:52:18.283Z,36.87
2023-02-11T06:54:44.654Z,37.90
2023-02-11T06:57:11.089Z,36.90
2023-02-11T06:59:37.474Z,36.27
2023-02-11T07:02:03.884Z,38.37
2023-02-11T07:04:30.299Z,37.57
2023-02-11T07:06:56.661Z,34.83
2023-02-11T07:09:23.031Z,37.83
2023-02-11T07:11:49.397Z,37.50
2023-02-11T07:14:15.834Z,36.83
2023-02-11T07:16:42.205Z,37.43
2023-02-11T07:19:08.580Z,35.70
2023-02-11T07:21:35.055Z,37.43
2023-02-11T07:24:02.023Z,35.93
2023-02-11T07:26:29.089Z,36.37
2023-02-11T07:28:55.816Z,36.20
2023-02-11T07:31:26.506Z,35.30
2023-02-11T07:33:55.069Z,35.73
2023-02-11T07:36:21.787Z,37.70
2023-02-11T07:38:48.381Z,37.47
2023-02-11T07:41:17.954Z,34.63
2023-02-11T07:43:44.779Z,36.37
2023-02-11T07:46:13.997Z,34.43
2023-02-11T07:48:40.478Z,34.73
2023-02-11T07:51:24.309Z,32.00
2023-02-11T07:53:52.004Z,33.80
2023-02-11T07:56:20.358Z,33.20
2023-02-11T07:58:46.812Z,33.17
2023-02-11T08:01:17.139Z,32.77
2023-02-11T08:03:43.594Z,32.10
2023-02-11T08:06:15.233Z,33.00
2023-02-11T08:08:42.644Z,32.13
2023-02-11T08:11:11.093Z,32.73
2023-02-11T08:13:37.640Z,32.90
2023-02-11T08:16:04.874Z,34.50
2023-02-11T08:18:32.251Z,33.63
2023-02-11T08:21:09.342Z,30.63
2023-02-11T08:23:36.995Z,34.63
2023-02-11T08:26:09.162Z,31.13
2023-02-11T08:28:37.352Z,37.37
2023-02-11T08:31:08.787Z,34.77
2023-02-11T08:33:35.814Z,35.17
2023-02-11T08:36:08.314Z,35.07
2023-02-11T08:38:34.762Z,35.37
2023-02-11T08:41:01.172Z,34.33
2023-02-11T08:43:27.580Z,35.63
2023-02-11T08:45:54.216Z,38.07
2023-02-11T08:48:20.692Z,35.17
2023-02-11T08:50:47.181Z,37.10
2023-02-11T08:53:13.546Z,34.97
2023-02-11T08:55:39.901Z,34.80
2023-02-11T08:58:06.261Z,34.90
2023-02-11T09:00:32.638Z,35.80
2023-02-11T09:02:59.056Z,36.43
2023-02-11T09:05:25.473Z,34.33
2023-02-11T09:07:51.918Z,35.73
2023-02-11T09:10:18.903Z,35.00
2023-02-11T09:12:45.267Z,33.80
2023-02-11T09:15:11.633Z,36.70
2023-02-11T09:17:37.988Z,33.07
2023-02-11T09:20:04.746Z,34.33
2023-02-11T09:22:31.137Z,34.23
2023-02-11T09:24:57.516Z,35.13
2023-02-11T09:27:23.877Z,35.50
2023-02-11T09:29:50.416Z,35.97
2023-02-11T09:32:16.903Z,39.67
2023-02-11T09:34:43.381Z,36.50
2023-02-11T09:37:09.890Z,37.10
2023-02-11T09:39:36.309Z,37.90
2023-02-11T09:42:05.318Z,36.33
2023-02-11T09:44:34.036Z,34.80
2023-02-11T09:47:17.351Z,38.10
2023-02-11T09:49:50.421Z,39.60
2023-02-11T09:52:40.386Z,38.20
2023-02-11T09:55:18.588Z,39.00
2023-02-11T09:57:45.112Z,39.67
2023-02-11T10:00:23.313Z,38.13
2023-02-11T10:03:14.733Z,37.00
2023-02-11T10:06:03.681Z,37.03
2023-02-11T10:08:58.992Z,35.13
2023-02-11T10:11:36.489Z,36.30
2023-02-11T10:14:27.910Z,36.67
2023-02-11T10:17:25.206Z,36.43
2023-02-11T10:19:57.762Z,37.00
2023-02-11T10:22:37.480Z,38.30
2023-02-11T10:25:21.668Z,38.40
2023-02-11T10:27:49.564Z,37.20
2023-02-11T10:30:26.418Z,37.27
2023-02-11T10:33:25.397Z,38.03
2023-02-11T10:35:51.802Z,38.73
2023-02-11T10:38:18.372Z,37.70
2023-02-11T10:40:45.718Z,38.60
2023-02-11T10:43:15.279Z,36.97
2023-02-11T10:45:50.687Z,37.00
2023-02-11T10:48:51.704Z,36.77
2023-02-11T10:51:23.775Z,36.73
2023-02-11T10:54:05.344Z,37.53
2023-02-11T10:56:41.026Z,35.07
2023-02-11T10:59:14.350Z,35.90
2023-02-11T11:01:46.127Z,38.03
2023-02-11T11:04:34.132Z,39.17
2023-02-11T11:07:22.782Z,41.30
2023-02-11T11:09:59.479Z,37.63
2023-02-11T11:12:25.804Z,37.73
2023-02-11T11:14:55.914Z,36.53
2023-02-11T11:17:22.346Z,37.73
2023-02-11T11:19:48.713Z,37.93
2023-02-11T11:22:22.485Z,35.50
2023-02-11T11:24:55.148Z,36.10
2023-02-11T11:27:24.400Z,36.43
2023-02-11T11:29:55.201Z,36.77
2023-02-11T11:32:29.648Z,34.73
2023-02-11T11:35:00.735Z,37.63
2023-02-11T11:37:34.076Z,35.70
2023-02-11T11:40:07.791Z,35.83
2023-02-11T11:42:36.816Z,38.90
2023-02-11T11:45:26.628Z,37.60
2023-02-11T11:48:03.097Z,38.13
2023-02-11T11:50:44.032Z,35.77
2023-02-11T11:53:31.471Z,35.20
2023-02-11T11:56:12.906Z,35.33
2023-02-11T11:58:39.459Z,35.57
2023-02-11T12:01:14.986Z,35.27
2023-02-11T12:04:10.870Z,34.00
2023-02-11T12:06:55.849Z,32.23
2023-02-11T12:09:39.068Z,34.83
2023-02-11T12:12:26.690Z,33.27
2023-02-11T12:15:20.354Z,33.73
2023-02-11T12:17:55.970Z,34.33
2023-02-11T12:20:31.334Z,34.30
2023-02-11T12:23:35.369Z,34.03
2023-02-11T12:26:12.392Z,33.80
2023-02-11T12:28:53.992Z,31.97
2023-02-11T12:31:35.272Z,33.37
2023-02-11T12:34:26.573Z,33.03
2023-02-11T12:37:20.047Z,34.47
2023-02-11T12:39:51.126Z,34.37
2023-02-11T12:42:55.130Z,35.80
2023-02-11T12:46:00.622Z,33.73
2023-02-11T12:48:43.409Z,34.23
2023-02-11T12:51:19.632Z,32.40
2023-02-11T12:54:21.273Z,36.10
2023-02-11T12:57:14.969Z,32.47
2023-02-11T12:59:51.941Z,31.93
2023-02-11T13:03:00.823Z,33.70
2023-02-11T13:05:46.179Z,35.87
2023-02-11T13:08:49.929Z,34.90
2023-02-11T13:11:34.704Z,33.87
2023-02-11T13:14:06.419Z,33.67
2023-02-11T13:16:38.250Z,35.20
2023-02-11T13:19:13.502Z,32.63
2023-02-11T13:21:48.159Z,33.73
2023-02-11T13:24:37.616Z,33.90
2023-02-11T13:27:11.449Z,32.10
2023-02-11T13:30:13.795Z,32.50
2023-02-11T13:33:04.680Z,32.53
2023-02-11T13:35:40.168Z,29.97
2023-02-11T13:38:19.141Z,33.67
2023-02-11T13:40:59.541Z,31.87
2023-02-11T13:43:30.559Z,29.83
2023-02-11T13:46:21.668Z,32.20
2023-02-11T13:48:52.481Z,30.70
2023-02-11T13:51:35.329Z,33.60
2023-02-11T13:54:03.180Z,32.33
2023-02-11T13:56:34.041Z,32.57
2023-02-11T13:59:04.025Z,31.90
2023-02-11T14:02:23.024Z,31.33
2023-02-11T14:05:23.246Z,30.63
2023-02-11T14:08:29.834Z,32.10
2023-02-11T14:10:57.661Z,29.77
2023-02-11T14:13:37.321Z,31.63
2023-02-11T14:16:17.102Z,28.17
2023-02-11T14:18:46.734Z,28.40
2023-02-11T14:21:22.857Z,29.57
2023-02-11T14:23:53.186Z,27.97
2023-02-11T14:26:20.086Z,28.37
2023-02-11T14:29:16.020Z,27.50
2023-02-11T14:32:05.348Z,25.47
2023-02-11T14:35:02.200Z,28.30
2023-02-11T14:38:00.582Z,27.27
2023-02-11T14:40:33.011Z,25.67
2023-02-11T14:43:24.302Z,23.80
2023-02-11T14:45:54.822Z,26.87
2023-02-11T14:48:29.770Z,25.17
2023-02-11T14:51:06.644Z,24.17
2023-02-11T14:53:34.269Z,23.37
2023-02-11T14:56:00.711Z,24.90
2023-02-11T14:58:29.971Z,22.97
2023-02-11T15:01:01.247Z,25.67
2023-02-11T15:03:35.309Z,23.87
2023-02-11T15:06:16.539Z,23.07
2023-02-11T15:08:47.176Z,23.33
2023-02-11T15:11:17.789Z,23.47
2023-02-11T15:13:47.430Z,22.93
2023-02-11T15:16:18.434Z,23.87
2023-02-11T15:18:48.381Z,23.20
2023-02-11T15:21:24.557Z,23.80
2023-02-11T15:24:05.970Z,23.53
2023-02-11T15:26:33.122Z,24.77
2023-02-11T15:29:00.124Z,24.60
2023-02-11T15:31:28.357Z,23.67
2023-02-11T15:33:55.142Z,24.27
2023-02-11T15:36:28.422Z,22.67
2023-02-11T15:39:17.325Z,26.97
2023-02-11T15:41:44.515Z,23.87
2023-02-11T15:44:31.242Z,24.63
2023-02-11T15:46:58.404Z,25.73
2023-02-11T15:49:26.122Z,25.87
2023-02-11T15:51:56.797Z,25.23
2023-02-11T15:54:27.439Z,26.53
2023-02-11T15:57:01.602Z,26.47
2023-02-11T15:59:38.761Z,26.93
2023-02-11T16:02:09.458Z,27.60
2023-02-11T16:04:36.323Z,26.03
2023-02-11T16:07:03.008Z,25.83
2023-02-11T16:09:34.959Z,28.00
2023-02-11T16:12:18.644Z,29.50
2023-02-11T16:14:45.077Z,28.77
2023-02-11T16:17:25.085Z,29.23
2023-02-11T16:19:53.517Z,31.10
2023-02-11T16:22:24.894Z,31.63
2023-02-11T16:24:54.002Z,30.20
2023-02-11T16:27:39.586Z,30.93
2023-02-11T16:30:21.722Z,31.33
2023-02-11T16:32:48.091Z,31.30
2023-02-11T16:35:14.436Z,30.87
2023-02-11T16:37:40.768Z,32.00
2023-02-11T16:40:07.949Z,29.10
2023-02-11T16:42:34.303Z,33.07
2023-02-11T16:45:00.723Z,31.33
2023-02-11T16:47:28.318Z,32.10
2023-02-11T16:49:56.028Z,33.00
2023-02-11T16:52:23.078Z,32.77
2023-02-11T16:54:51.353Z,34.63
2023-02-11T16:57:21.101Z,33.40
2023-02-11T16:59:48.007Z,34.20
2023-02-11T17:02:32.742Z,32.37
2023-02-11T17:05:01.726Z,31.50
2023-02-11T17:07:28.772Z,31.60
2023-02-11T17:09:56.037Z,31.40
2023-02-11T17:12:25.242Z,31.57
2023-02-11T17:14:52.274Z,34.37
2023-02-11T17:17:18.663Z,32.10
2023-02-11T17:19:45.023Z,31.50
2023-02-11T17:22:11.904Z,31.90
2023-02-11T17:24:38.238Z,32.87
2023-02-11T17:27:04.700Z,33.23
2023-02-11T17:29:31.140Z,32.60
2023-02-11T17:31:57.540Z,34.20
2023-02-11T17:34:24.123Z,33.43
2023-02-11T17:36:50.695Z,32.93
2023-02-11T17:39:17.079Z,33.10
2023-02-11T17:41:43.467Z,33.43
2023-02-11T17:44:12.067Z,33.97
2023-02-11T17:46:38.420Z,35.47
2023-02-11T17:49:04.851Z,34.00
2023-02-11T17:51:33.930Z,33.10
2023-02-11T17:54:03.536Z,34.17
2023-02-11T17:56:33.107Z,32.40
2023-02-11T17:58:59.552Z,35.30
2023-02-11T18:01:30.953Z,34.20
2023-02-11T18:03:57.680Z,34.47
2023-02-11T18:06:24.476Z,32.10
2023-02-11T18:08:50.907Z,32.97
2023-02-11T18:11:17.693Z,36.53
2023-02-11T18:13:45.247Z,33.83
2023-02-11T18:16:15.666Z,34.73
2023-02-11T18:18:43.361Z,34.57
2023-02-11T18:21:15.505Z,34.20
2023-02-11T18:23:42.727Z,35.53
2023-02-11T18:26:10.904Z,35.10
2023-02-11T18:28:38.300Z,34.87
2023-02-11T18:31:05.823Z,34.07
2023-02-11T18:33:32.846Z,36.23
2023-02-11T18:35:59.201Z,36.80
2023-02-11T18:38:25.574Z,34.20
2023-02-11T18:40:52.337Z,37.70
2023-02-11T18:43:19.846Z,35.13
2023-02-11T18:45:47.890Z,33.57
2023-02-11T18:48:15.277Z,35.60
2023-02-11T18:50:44.378Z,36.77
2023-02-11T18:53:12.853Z,35.23
2023-02-11T18:55:40.811Z,33.40
2023-02-11T18:58:07.225Z,36.73
2023-02-11T19:00:34.660Z,36.97
2023-02-11T19:03:01.277Z,34.10
2023-02-11T19:05:29.799Z,35.83
2023-02-11T19:07:56.455Z,37.47
2023-02-11T19:10:23.797Z,34.53
2023-02-11T19:12:53.630Z,35.67
2023-02-11T19:15:19.987Z,38.50
2023-02-11T19:17:46.306Z,36.07
2023-02-11T19:20:12.678Z,36.73
2023-02-11T19:22:39.006Z,36.10
2023-02-11T19:25:05.775Z,37.13
2023-02-11T19:27:32.188Z,36.50
2023-02-11T19:29:58.582Z,38.97
2023-02-11T19:32:24.991Z,36.43
2023-02-11T19:34:52.048Z,37.53
2023-02-11T19:37:18.600Z,35.63
2023-02-11T19:39:45.253Z,37.53
2023-02-11T19:42:12.452Z,39.00
2023-02-11T19:44:38.944Z,38.70
2023-02-11T19:47:06.766Z,37.57
2023-02-11T19:49:33.641Z,36.27
2023-02-11T19:52:00.054Z,37.80
2023-02-11T19:54:28.951Z,37.97
2023-02-11T19:56:55.671Z,38.30
2023-02-11T19:59:22.024Z,37.83
2023-02-11T20:01:48.980Z,38.57
2023-02-11T20:04:18.231Z,38.53
2023-02-11T20:06:45.220Z,38.07
2023-02-11T20:09:14.394Z,37.27
2023-02-11T20:11:41.484Z,39.77
2023-02-11T20:14:10.405Z,40.90
2023-02-11T20:16:47.972Z,39.47
2023-02-11T20:19:21.138Z,36.37
2023-02-11T20:21:50.771Z,37.43
2023-02-11T20:24:18.723Z,38.70
2023-02-11T20:26:47.954Z,38.03
2023-02-11T20:29:15.959Z,38.73
2023-02-11T20:31:43.011Z,39.07
2023-02-11T20:34:10.741Z,39.33
2023-02-11T20:36:38.622Z,38.77
2023-02-11T20:39:05.874Z,38.03
2023-02-11T20:41:34.533Z,38.27
2023-02-11T20:44:03.882Z,36.93
2023-02-11T20:46:33.118Z,38.77
2023-02-11T20:48:59.936Z,38.17
2023-02-11T20:51:30.384Z,37.43
2023-02-11T20:53:57.498Z,38.60
2023-02-11T20:56:29.865Z,37.83
2023-02-11T20:58:58.172Z,38.70
2023-02-11T21:01:27.941Z,40.77
2023-02-11T21:03:57.566Z,37.97
2023-02-11T21:06:30.282Z,39.03
2023-02-11T21:08:57.428Z,38.40
2023-02-11T21:11:24.051Z,39.23
2023-02-11T21:13:51.046Z,37.97
2023-02-11T21:16:22.516Z,40.50
2023-02-11T21:18:50.224Z,40.17
2023-02-11T21:21:18.790Z,39.43
2023-02-11T21:23:45.636Z,38.97
2023-02-11T21:26:12.494Z,40.17
2023-02-11T21:28:40.956Z,39.47
2023-02-11T21:31:07.815Z,38.43
2023-02-11T21:33:34.568Z,39.00
2023-02-11T21:36:04.529Z,39.00
2023-02-11T21:38:31.232Z,39.17
2023-02-11T21:41:03.848Z,39.37
2023-02-11T21:43:30.189Z,39.20
2023-02-11T21:45:57.107Z,38.77
2023-02-11T21:48:25.540Z,38.60
2023-02-11T21:50:52.866Z,39.30
2023-02-11T21:53:19.656Z,40.10
2023-02-11T21:55:45.972Z,41.57
2023-02-11T21:58:13.284Z,41.73
2023-02-11T22:00:40.231Z,41.07
2023-02-11T22:03:06.681Z,41.53
2023-02-11T22:05:33.052Z,41.00
2023-02-11T22:07:59.440Z,37.50
2023-02-11T22:10:25.781Z,38.57
2023-02-11T22:12:52.098Z,38.47
2023-02-11T22:15:18.503Z,36.83
2023-02-11T22:17:44.965Z,36.27
2023-02-11T22:20:11.681Z,37.60
2023-02-11T22:22:38.003Z,38.13
2023-02-11T22:25:04.586Z,37.70
2023-02-11T22:27:30.939Z,38.33
2023-02-11T22:29:57.291Z,37.43
2023-02-11T22:32:23.941Z,36.27
2023-02-11T22:34:53.104Z,36.20
2023-02-11T22:37:19.719Z,37.23
2023-02-11T22:39:46.277Z,36.53
2023-02-11T22:42:12.612Z,38.00
2023-02-11T22:44:38.981Z,37.53
2023-02-11T22:47:05.370Z,36.27
2023-02-11T22:49:33.065Z,38.43
2023-02-11T22:51:59.698Z,35.83
2023-02-11T22:54:26.174Z,37.17
2023-02-11T22:56:53.182Z,34.63
2023-02-11T22:59:20.706Z,37.40
2023-02-11T23:01:47.443Z,36.20
2023-02-11T23:04:16.899Z,36.00
2023-02-11T23:06:43.904Z,36.40
2023-02-11T23:09:12.189Z,36.67
2023-02-11T23:11:39.246Z,34.17
2023-02-11T23:14:08.020Z,37.13
2023-02-11T23:16:34.698Z,35.23
2023-02-11T23:19:05.469Z,37.00
2023-02-11T23:21:35.166Z,34.33
2023-02-11T23:24:05.720Z,36.63
2023-02-11T23:26:32.391Z,34.07
2023-02-11T23:28:59.748Z,33.50
2023-02-11T23:31:37.385Z,34.40
2023-02-11T23:34:04.215Z,34.03
2023-02-11T23:36:30.653Z,34.77
2023-02-11T23:38:57.071Z,33.30
2023-02-11T23:41:24.457Z,35.53
2023-02-11T23:43:52.743Z,34.33
2023-02-11T23:46:21.675Z,34.90
2023-02-11T23:48:49.494Z,34.00
2023-02-11T23:51:15.969Z,31.70
2023-02-11T23:53:42.443Z,28.90
2023-02-11T23:56:11.070Z,29.83
2023-02-11T23:58:37.460Z,31.27
